sensor_id;sensor_type;location;lat;lon;timestamp;temperature;humidity
75164;HTU21D;63746;45.402;37.922;2023-04-24T00:00:20;12.65;69.08
75164;HTU21D;63746;45.402;37.922;2023-04-24T00:02:47;12.65;69.05
75164;HTU21D;63746;45.402;37.922;2023-04-24T00:05:16;12.65;69.07
75164;HTU21D;63746;45.402;37.922;2023-04-24T00:07:44;12.64;69.10
75164;HTU21D;63746;45.402;37.922;2023-04-24T00:10:11;12.64;69.13
75164;HTU21D;63746;45.402;37.922;2023-04-24T00:12:38;12.64;69.14
75164;HTU21D;63746;45.402;37.922;2023-04-24T00:15:05;12.64;69.16
75164;HTU21D;63746;45.402;37.922;2023-04-24T00:17:31;12.64;69.16
75164;HTU21D;63746;45.402;37.922;2023-04-24T00:19:57;12.63;69.16
75164;HTU21D;63746;45.402;37.922;2023-04-24T00:22:27;12.64;69.18
75164;HTU21D;63746;45.402;37.922;2023-04-24T00:24:54;12.64;69.17
75164;HTU21D;63746;45.402;37.922;2023-04-24T00:27:20;12.64;69.19
75164;HTU21D;63746;45.402;37.922;2023-04-24T00:29:46;12.64;69.19
75164;HTU21D;63746;45.402;37.922;2023-04-24T00:32:13;12.64;69.20
75164;HTU21D;63746;45.402;37.922;2023-04-24T00:34:39;12.63;69.16
75164;HTU21D;63746;45.402;37.922;2023-04-24T00:37:05;12.63;69.16
75164;HTU21D;63746;45.402;37.922;2023-04-24T00:39:32;12.63;69.12
75164;HTU21D;63746;45.402;37.922;2023-04-24T00:41:58;12.63;69.11
75164;HTU21D;63746;45.402;37.922;2023-04-24T00:44:24;12.61;69.10
75164;HTU21D;63746;45.402;37.922;2023-04-24T00:46:51;12.61;69.07
75164;HTU21D;63746;45.402;37.922;2023-04-24T00:49:23;12.58;69.08
75164;HTU21D;63746;45.402;37.922;2023-04-24T00:51:49;12.57;69.04
75164;HTU21D;63746;45.402;37.922;2023-04-24T00:54:17;12.55;69.04
75164;HTU21D;63746;45.402;37.922;2023-04-24T00:56:44;12.53;69.04
75164;HTU21D;63746;45.402;37.922;2023-04-24T00:59:12;12.52;68.99
75164;HTU21D;63746;45.402;37.922;2023-04-24T01:01:38;12.49;68.97
75164;HTU21D;63746;45.402;37.922;2023-04-24T01:04:08;12.46;68.97
75164;HTU21D;63746;45.402;37.922;2023-04-24T01:06:39;12.44;69.00
75164;HTU21D;63746;45.402;37.922;2023-04-24T01:09:06;12.41;69.02
75164;HTU21D;63746;45.402;37.922;2023-04-24T01:11:36;12.40;69.07
75164;HTU21D;63746;45.402;37.922;2023-04-24T01:14:04;12.37;69.11
75164;HTU21D;63746;45.402;37.922;2023-04-24T01:16:30;12.36;69.10
75164;HTU21D;63746;45.402;37.922;2023-04-24T01:18:56;12.34;69.15
75164;HTU21D;63746;45.402;37.922;2023-04-24T01:21:23;12.32;69.15
75164;HTU21D;63746;45.402;37.922;2023-04-24T01:23:53;12.32;69.16
75164;HTU21D;63746;45.402;37.922;2023-04-24T01:26:19;12.30;69.15
75164;HTU21D;63746;45.402;37.922;2023-04-24T01:28:46;12.27;69.20
75164;HTU21D;63746;45.402;37.922;2023-04-24T01:31:12;12.25;69.20
75164;HTU21D;63746;45.402;37.922;2023-04-24T01:33:38;12.22;69.24
75164;HTU21D;63746;45.402;37.922;2023-04-24T01:36:04;12.22;69.30
75164;HTU21D;63746;45.402;37.922;2023-04-24T01:38:30;12.22;69.33
75164;HTU21D;63746;45.402;37.922;2023-04-24T01:40:56;12.21;69.34
75164;HTU21D;63746;45.402;37.922;2023-04-24T01:43:24;12.20;69.32
75164;HTU21D;63746;45.402;37.922;2023-04-24T01:45:50;12.18;69.33
75164;HTU21D;63746;45.402;37.922;2023-04-24T01:48:16;12.17;69.31
75164;HTU21D;63746;45.402;37.922;2023-04-24T01:50:42;12.14;69.35
75164;HTU21D;63746;45.402;37.922;2023-04-24T01:53:11;12.14;69.33
75164;HTU21D;63746;45.402;37.922;2023-04-24T01:55:37;12.13;69.38
75164;HTU21D;63746;45.402;37.922;2023-04-24T01:58:04;12.11;69.43
75164;HTU21D;63746;45.402;37.922;2023-04-24T02:00:30;12.11;69.42
75164;HTU21D;63746;45.402;37.922;2023-04-24T02:02:56;12.10;69.44
75164;HTU21D;63746;45.402;37.922;2023-04-24T02:05:22;12.10;69.46
75164;HTU21D;63746;45.402;37.922;2023-04-24T02:07:48;12.11;69.47
75164;HTU21D;63746;45.402;37.922;2023-04-24T02:10:14;12.11;69.46
75164;HTU21D;63746;45.402;37.922;2023-04-24T02:12:43;12.10;69.47
75164;HTU21D;63746;45.402;37.922;2023-04-24T02:15:09;12.10;69.45
75164;HTU21D;63746;45.402;37.922;2023-04-24T02:17:36;12.08;69.46
75164;HTU21D;63746;45.402;37.922;2023-04-24T02:20:06;12.07;69.44
75164;HTU21D;63746;45.402;37.922;2023-04-24T02:22:33;12.07;69.42
75164;HTU21D;63746;45.402;37.922;2023-04-24T02:25:01;12.06;69.40
75164;HTU21D;63746;45.402;37.922;2023-04-24T02:27:27;12.06;69.43
75164;HTU21D;63746;45.402;37.922;2023-04-24T02:29:53;12.06;69.44
75164;HTU21D;63746;45.402;37.922;2023-04-24T02:32:19;12.06;69.43
75164;HTU21D;63746;45.402;37.922;2023-04-24T02:34:45;12.06;69.45
75164;HTU21D;63746;45.402;37.922;2023-04-24T02:37:11;12.06;69.37
75164;HTU21D;63746;45.402;37.922;2023-04-24T02:39:37;12.04;69.39
75164;HTU21D;63746;45.402;37.922;2023-04-24T02:42:04;12.03;69.40
75164;HTU21D;63746;45.402;37.922;2023-04-24T02:44:30;12.02;69.37
75164;HTU21D;63746;45.402;37.922;2023-04-24T02:46:56;12.02;69.39
75164;HTU21D;63746;45.402;37.922;2023-04-24T02:49:22;12.01;69.36
75164;HTU21D;63746;45.402;37.922;2023-04-24T02:51:48;12.00;69.38
75164;HTU21D;63746;45.402;37.922;2023-04-24T02:54:14;12.00;69.40
75164;HTU21D;63746;45.402;37.922;2023-04-24T02:56:40;11.99;69.42
75164;HTU21D;63746;45.402;37.922;2023-04-24T02:59:07;12.01;69.42
75164;HTU21D;63746;45.402;37.922;2023-04-24T03:01:33;12.00;69.41
75164;HTU21D;63746;45.402;37.922;2023-04-24T03:03:59;12.00;69.44
75164;HTU21D;63746;45.402;37.922;2023-04-24T03:06:25;12.01;69.45
75164;HTU21D;63746;45.402;37.922;2023-04-24T03:08:52;11.99;69.42
75164;HTU21D;63746;45.402;37.922;2023-04-24T03:11:19;12.01;69.44
75164;HTU21D;63746;45.402;37.922;2023-04-24T03:13:45;12.01;69.49
75164;HTU21D;63746;45.402;37.922;2023-04-24T03:16:11;12.01;69.50
75164;HTU21D;63746;45.402;37.922;2023-04-24T03:18:37;12.02;69.52
75164;HTU21D;63746;45.402;37.922;2023-04-24T03:21:04;12.03;69.54
75164;HTU21D;63746;45.402;37.922;2023-04-24T03:23:31;12.04;69.56
75164;HTU21D;63746;45.402;37.922;2023-04-24T03:25:57;12.03;69.58
75164;HTU21D;63746;45.402;37.922;2023-04-24T03:28:24;12.05;69.60
75164;HTU21D;63746;45.402;37.922;2023-04-24T03:31:03;12.08;69.65
75164;HTU21D;63746;45.402;37.922;2023-04-24T03:33:33;12.10;69.67
75164;HTU21D;63746;45.402;37.922;2023-04-24T03:36:00;12.10;69.66
75164;HTU21D;63746;45.402;37.922;2023-04-24T03:38:34;12.11;69.71
75164;HTU21D;63746;45.402;37.922;2023-04-24T03:41:12;12.13;69.76
75164;HTU21D;63746;45.402;37.922;2023-04-24T03:43:48;12.18;69.76
75164;HTU21D;63746;45.402;37.922;2023-04-24T03:46:15;12.19;69.75
75164;HTU21D;63746;45.402;37.922;2023-04-24T03:48:46;12.23;69.79
75164;HTU21D;63746;45.402;37.922;2023-04-24T03:51:15;12.26;69.81
75164;HTU21D;63746;45.402;37.922;2023-04-24T03:53:44;12.30;69.81
75164;HTU21D;63746;45.402;37.922;2023-04-24T03:56:12;12.34;69.87
75164;HTU21D;63746;45.402;37.922;2023-04-24T03:58:40;12.37;69.82
75164;HTU21D;63746;45.402;37.922;2023-04-24T04:01:06;12.43;69.84
75164;HTU21D;63746;45.402;37.922;2023-04-24T04:03:59;12.47;69.87
75164;HTU21D;63746;45.402;37.922;2023-04-24T04:06:26;12.50;69.82
75164;HTU21D;63746;45.402;37.922;2023-04-24T04:08:54;12.53;69.81
75164;HTU21D;63746;45.402;37.922;2023-04-24T04:11:20;12.57;69.81
75164;HTU21D;63746;45.402;37.922;2023-04-24T04:13:46;12.60;69.78
75164;HTU21D;63746;45.402;37.922;2023-04-24T04:16:15;12.61;69.80
75164;HTU21D;63746;45.402;37.922;2023-04-24T04:18:46;12.64;69.82
75164;HTU21D;63746;45.402;37.922;2023-04-24T04:21:12;12.67;69.91
75164;HTU21D;63746;45.402;37.922;2023-04-24T04:23:39;12.72;69.85
75164;HTU21D;63746;45.402;37.922;2023-04-24T04:26:28;12.76;69.80
75164;HTU21D;63746;45.402;37.922;2023-04-24T04:29:08;12.78;69.83
75164;HTU21D;63746;45.402;37.922;2023-04-24T04:31:38;12.81;69.92
75164;HTU21D;63746;45.402;37.922;2023-04-24T04:34:09;12.87;69.96
75164;HTU21D;63746;45.402;37.922;2023-04-24T04:36:35;12.93;69.98
75164;HTU21D;63746;45.402;37.922;2023-04-24T04:39:15;13.01;70.00
75164;HTU21D;63746;45.402;37.922;2023-04-24T04:42:03;13.09;70.02
75164;HTU21D;63746;45.402;37.922;2023-04-24T04:44:38;13.16;69.97
75164;HTU21D;63746;45.402;37.922;2023-04-24T04:47:07;13.22;70.81
75164;HTU21D;63746;45.402;37.922;2023-04-24T04:49:37;13.26;70.11
75164;HTU21D;63746;45.402;37.922;2023-04-24T04:52:07;13.33;70.07
75164;HTU21D;63746;45.402;37.922;2023-04-24T04:54:33;13.40;70.05
75164;HTU21D;63746;45.402;37.922;2023-04-24T04:56:59;13.48;69.98
75164;HTU21D;63746;45.402;37.922;2023-04-24T04:59:26;13.54;69.93
75164;HTU21D;63746;45.402;37.922;2023-04-24T05:01:59;13.64;69.89
75164;HTU21D;63746;45.402;37.922;2023-04-24T05:04:25;13.69;69.85
75164;HTU21D;63746;45.402;37.922;2023-04-24T05:06:52;13.78;69.81
75164;HTU21D;63746;45.402;37.922;2023-04-24T05:09:19;13.86;69.75
75164;HTU21D;63746;45.402;37.922;2023-04-24T05:11:51;13.93;69.67
75164;HTU21D;63746;45.402;37.922;2023-04-24T05:14:17;14.00;69.69
75164;HTU21D;63746;45.402;37.922;2023-04-24T05:16:45;14.07;69.68
75164;HTU21D;63746;45.402;37.922;2023-04-24T05:19:12;14.18;69.62
75164;HTU21D;63746;45.402;37.922;2023-04-24T05:21:40;14.24;69.60
75164;HTU21D;63746;45.402;37.922;2023-04-24T05:24:08;14.34;69.61
75164;HTU21D;63746;45.402;37.922;2023-04-24T05:27:00;14.45;69.66
75164;HTU21D;63746;45.402;37.922;2023-04-24T05:29:33;14.56;69.60
75164;HTU21D;63746;45.402;37.922;2023-04-24T05:31:59;14.66;69.63
75164;HTU21D;63746;45.402;37.922;2023-04-24T05:34:27;14.78;70.00
75164;HTU21D;63746;45.402;37.922;2023-04-24T05:36:55;14.86;69.56
75164;HTU21D;63746;45.402;37.922;2023-04-24T05:39:21;14.94;69.39
75164;HTU21D;63746;45.402;37.922;2023-04-24T05:41:47;15.02;69.36
75164;HTU21D;63746;45.402;37.922;2023-04-24T05:44:13;15.10;69.24
75164;HTU21D;63746;45.402;37.922;2023-04-24T05:46:39;15.15;69.13
75164;HTU21D;63746;45.402;37.922;2023-04-24T05:49:05;15.25;69.11
75164;HTU21D;63746;45.402;37.922;2023-04-24T05:51:33;15.30;69.07
75164;HTU21D;63746;45.402;37.922;2023-04-24T05:53:58;15.38;68.97
75164;HTU21D;63746;45.402;37.922;2023-04-24T05:56:25;15.45;68.93
75164;HTU21D;63746;45.402;37.922;2023-04-24T05:58:51;15.49;68.81
75164;HTU21D;63746;45.402;37.922;2023-04-24T06:01:17;15.53;68.78
75164;HTU21D;63746;45.402;37.922;2023-04-24T06:03:49;15.58;68.78
75164;HTU21D;63746;45.402;37.922;2023-04-24T06:06:15;15.65;68.75
75164;HTU21D;63746;45.402;37.922;2023-04-24T06:08:41;15.69;68.73
75164;HTU21D;63746;45.402;37.922;2023-04-24T06:11:10;15.74;68.70
75164;HTU21D;63746;45.402;37.922;2023-04-24T06:13:37;15.81;68.71
75164;HTU21D;63746;45.402;37.922;2023-04-24T06:16:42;15.87;68.54
75164;HTU21D;63746;45.402;37.922;2023-04-24T06:19:17;15.87;68.40
75164;HTU21D;63746;45.402;37.922;2023-04-24T06:21:43;15.86;68.39
75164;HTU21D;63746;45.402;37.922;2023-04-24T06:24:09;15.85;68.36
75164;HTU21D;63746;45.402;37.922;2023-04-24T06:26:36;15.82;68.33
75164;HTU21D;63746;45.402;37.922;2023-04-24T06:29:02;15.80;68.37
75164;HTU21D;63746;45.402;37.922;2023-04-24T06:31:28;15.81;68.44
75164;HTU21D;63746;45.402;37.922;2023-04-24T06:33:54;15.80;68.40
75164;HTU21D;63746;45.402;37.922;2023-04-24T06:36:20;15.78;68.44
75164;HTU21D;63746;45.402;37.922;2023-04-24T06:38:46;15.78;68.42
75164;HTU21D;63746;45.402;37.922;2023-04-24T06:41:11;15.80;68.47
75164;HTU21D;63746;45.402;37.922;2023-04-24T06:43:38;15.80;68.49
75164;HTU21D;63746;45.402;37.922;2023-04-24T06:46:04;15.81;68.51
75164;HTU21D;63746;45.402;37.922;2023-04-24T06:48:30;15.81;68.52
75164;HTU21D;63746;45.402;37.922;2023-04-24T06:50:56;15.85;68.59
75164;HTU21D;63746;45.402;37.922;2023-04-24T06:53:22;15.89;68.60
75164;HTU21D;63746;45.402;37.922;2023-04-24T06:55:48;15.95;68.58
75164;HTU21D;63746;45.402;37.922;2023-04-24T06:58:14;15.98;68.62
75164;HTU21D;63746;45.402;37.922;2023-04-24T07:00:40;16.02;68.66
75164;HTU21D;63746;45.402;37.922;2023-04-24T07:03:06;16.10;68.71
75164;HTU21D;63746;45.402;37.922;2023-04-24T07:05:32;16.18;68.68
75164;HTU21D;63746;45.402;37.922;2023-04-24T07:08:01;16.26;68.65
75164;HTU21D;63746;45.402;37.922;2023-04-24T07:10:27;16.30;68.51
75164;HTU21D;63746;45.402;37.922;2023-04-24T07:12:54;16.33;68.46
75164;HTU21D;63746;45.402;37.922;2023-04-24T07:15:22;16.35;68.39
75164;HTU21D;63746;45.402;37.922;2023-04-24T07:17:49;16.37;68.38
75164;HTU21D;63746;45.402;37.922;2023-04-24T07:20:15;16.41;68.46
75164;HTU21D;63746;45.402;37.922;2023-04-24T07:22:41;16.45;68.43
75164;HTU21D;63746;45.402;37.922;2023-04-24T07:25:08;16.48;68.36
75164;HTU21D;63746;45.402;37.922;2023-04-24T07:27:34;16.50;68.39
75164;HTU21D;63746;45.402;37.922;2023-04-24T07:30:03;16.56;68.39
75164;HTU21D;63746;45.402;37.922;2023-04-24T07:32:29;16.59;68.39
75164;HTU21D;63746;45.402;37.922;2023-04-24T07:34:55;16.64;68.36
75164;HTU21D;63746;45.402;37.922;2023-04-24T07:37:22;16.67;68.30
75164;HTU21D;63746;45.402;37.922;2023-04-24T07:39:48;16.71;68.28
75164;HTU21D;63746;45.402;37.922;2023-04-24T07:42:14;16.73;68.22
75164;HTU21D;63746;45.402;37.922;2023-04-24T07:44:40;16.73;68.28
75164;HTU21D;63746;45.402;37.922;2023-04-24T07:47:06;16.78;68.31
75164;HTU21D;63746;45.402;37.922;2023-04-24T07:49:32;16.81;68.30
75164;HTU21D;63746;45.402;37.922;2023-04-24T07:52:00;16.86;68.33
75164;HTU21D;63746;45.402;37.922;2023-04-24T07:54:28;16.91;68.34
75164;HTU21D;63746;45.402;37.922;2023-04-24T07:56:54;16.98;68.30
75164;HTU21D;63746;45.402;37.922;2023-04-24T07:59:20;17.00;68.24
75164;HTU21D;63746;45.402;37.922;2023-04-24T08:01:46;17.03;68.19
75164;HTU21D;63746;45.402;37.922;2023-04-24T08:04:12;17.06;68.18
75164;HTU21D;63746;45.402;37.922;2023-04-24T08:06:38;17.09;68.13
75164;HTU21D;63746;45.402;37.922;2023-04-24T08:09:04;17.08;68.04
75164;HTU21D;63746;45.402;37.922;2023-04-24T08:11:30;17.06;67.98
75164;HTU21D;63746;45.402;37.922;2023-04-24T08:13:55;17.06;67.97
75164;HTU21D;63746;45.402;37.922;2023-04-24T08:16:22;17.02;67.92
75164;HTU21D;63746;45.402;37.922;2023-04-24T08:18:49;17.00;67.94
75164;HTU21D;63746;45.402;37.922;2023-04-24T08:21:16;16.98;68.01
75164;HTU21D;63746;45.402;37.922;2023-04-24T08:23:44;16.99;68.04
75164;HTU21D;63746;45.402;37.922;2023-04-24T08:26:11;17.00;68.04
75164;HTU21D;63746;45.402;37.922;2023-04-24T08:28:38;16.99;68.04
75164;HTU21D;63746;45.402;37.922;2023-04-24T08:31:04;17.00;68.04
75164;HTU21D;63746;45.402;37.922;2023-04-24T08:33:30;17.01;68.06
75164;HTU21D;63746;45.402;37.922;2023-04-24T08:36:02;17.01;68.01
75164;HTU21D;63746;45.402;37.922;2023-04-24T08:38:28;17.01;68.00
75164;HTU21D;63746;45.402;37.922;2023-04-24T08:40:54;17.01;68.01
75164;HTU21D;63746;45.402;37.922;2023-04-24T08:43:22;17.01;67.97
75164;HTU21D;63746;45.402;37.922;2023-04-24T08:45:49;17.01;67.97
75164;HTU21D;63746;45.402;37.922;2023-04-24T08:48:15;17.00;67.95
75164;HTU21D;63746;45.402;37.922;2023-04-24T08:50:42;16.99;67.94
75164;HTU21D;63746;45.402;37.922;2023-04-24T08:53:09;16.96;67.92
75164;HTU21D;63746;45.402;37.922;2023-04-24T08:55:35;16.96;67.94
75164;HTU21D;63746;45.402;37.922;2023-04-24T08:58:02;16.96;67.95
75164;HTU21D;63746;45.402;37.922;2023-04-24T09:00:28;16.98;67.97
75164;HTU21D;63746;45.402;37.922;2023-04-24T09:02:55;16.96;67.97
75164;HTU21D;63746;45.402;37.922;2023-04-24T09:05:22;16.96;67.96
75164;HTU21D;63746;45.402;37.922;2023-04-24T09:07:54;16.96;67.94
75164;HTU21D;63746;45.402;37.922;2023-04-24T09:10:24;16.94;67.90
75164;HTU21D;63746;45.402;37.922;2023-04-24T09:12:51;16.93;67.93
75164;HTU21D;63746;45.402;37.922;2023-04-24T09:15:20;16.92;67.91
75164;HTU21D;63746;45.402;37.922;2023-04-24T09:17:47;16.91;67.91
75164;HTU21D;63746;45.402;37.922;2023-04-24T09:20:13;16.89;67.91
75164;HTU21D;63746;45.402;37.922;2023-04-24T09:22:39;16.88;67.92
75164;HTU21D;63746;45.402;37.922;2023-04-24T09:25:06;16.85;67.91
75164;HTU21D;63746;45.402;37.922;2023-04-24T09:27:33;16.82;67.92
75164;HTU21D;63746;45.402;37.922;2023-04-24T09:30:00;16.80;67.94
75164;HTU21D;63746;45.402;37.922;2023-04-24T09:32:27;16.78;67.97
75164;HTU21D;63746;45.402;37.922;2023-04-24T09:35:12;16.77;67.89
75164;HTU21D;63746;45.402;37.922;2023-04-24T09:37:46;16.76;67.99
75164;HTU21D;63746;45.402;37.922;2023-04-24T09:40:14;16.75;68.06
75164;HTU21D;63746;45.402;37.922;2023-04-24T09:42:45;16.75;68.04
75164;HTU21D;63746;45.402;37.922;2023-04-24T09:45:12;16.75;68.07
75164;HTU21D;63746;45.402;37.922;2023-04-24T09:47:39;16.73;68.07
75164;HTU21D;63746;45.402;37.922;2023-04-24T09:50:15;16.72;68.10
75164;HTU21D;63746;45.402;37.922;2023-04-24T09:52:57;16.71;68.17
75164;HTU21D;63746;45.402;37.922;2023-04-24T09:55:24;16.71;68.22
75164;HTU21D;63746;45.402;37.922;2023-04-24T09:57:59;16.72;68.23
75164;HTU21D;63746;45.402;37.922;2023-04-24T10:00:32;16.72;68.29
75164;HTU21D;63746;45.402;37.922;2023-04-24T10:03:02;16.76;68.27
75164;HTU21D;63746;45.402;37.922;2023-04-24T10:05:31;16.76;68.26
75164;HTU21D;63746;45.402;37.922;2023-04-24T10:08:03;16.77;68.25
75164;HTU21D;63746;45.402;37.922;2023-04-24T10:10:30;16.78;68.25
75164;HTU21D;63746;45.402;37.922;2023-04-24T10:12:56;16.78;68.23
75164;HTU21D;63746;45.402;37.922;2023-04-24T10:15:22;16.79;68.23
75164;HTU21D;63746;45.402;37.922;2023-04-24T10:17:50;16.80;68.23
75164;HTU21D;63746;45.402;37.922;2023-04-24T10:20:23;16.80;68.24
75164;HTU21D;63746;45.402;37.922;2023-04-24T10:22:56;16.84;68.25
75164;HTU21D;63746;45.402;37.922;2023-04-24T10:25:27;16.85;68.27
75164;HTU21D;63746;45.402;37.922;2023-04-24T10:27:54;16.86;68.25
75164;HTU21D;63746;45.402;37.922;2023-04-24T10:30:29;16.87;68.26
75164;HTU21D;63746;45.402;37.922;2023-04-24T10:32:55;16.88;68.22
75164;HTU21D;63746;45.402;37.922;2023-04-24T10:35:22;16.87;68.18
75164;HTU21D;63746;45.402;37.922;2023-04-24T10:37:59;16.87;68.20
75164;HTU21D;63746;45.402;37.922;2023-04-24T10:40:30;16.87;68.23
75164;HTU21D;63746;45.402;37.922;2023-04-24T10:42:56;16.86;68.20
75164;HTU21D;63746;45.402;37.922;2023-04-24T10:45:23;16.84;68.21
75164;HTU21D;63746;45.402;37.922;2023-04-24T10:48:03;16.84;68.24
75164;HTU21D;63746;45.402;37.922;2023-04-24T10:50:41;16.79;68.17
75164;HTU21D;63746;45.402;37.922;2023-04-24T10:53:14;16.76;68.20
75164;HTU21D;63746;45.402;37.922;2023-04-24T10:55:42;16.73;68.20
75164;HTU21D;63746;45.402;37.922;2023-04-24T10:58:09;16.67;68.21
75164;HTU21D;63746;45.402;37.922;2023-04-24T11:00:37;16.64;68.20
75164;HTU21D;63746;45.402;37.922;2023-04-24T11:03:25;16.57;68.31
75164;HTU21D;63746;45.402;37.922;2023-04-24T11:05:57;16.52;68.26
75164;HTU21D;63746;45.402;37.922;2023-04-24T11:08:26;16.46;68.34
75164;HTU21D;63746;45.402;37.922;2023-04-24T11:13:28;16.34;68.42
75164;HTU21D;63746;45.402;37.922;2023-04-24T11:16:54;16.28;68.64
75164;HTU21D;63746;45.402;37.922;2023-04-24T11:19:26;16.21;68.53
75164;HTU21D;63746;45.402;37.922;2023-04-24T11:21:59;16.17;68.49
75164;HTU21D;63746;45.402;37.922;2023-04-24T11:34:59;15.92;68.62
75164;HTU21D;63746;45.402;37.922;2023-04-24T11:37:33;15.88;69.27
75164;HTU21D;63746;45.402;37.922;2023-04-24T11:39:59;15.85;68.75
75164;HTU21D;63746;45.402;37.922;2023-04-24T11:42:25;15.81;68.77
75164;HTU21D;63746;45.402;37.922;2023-04-24T11:44:55;15.78;68.79
75164;HTU21D;63746;45.402;37.922;2023-04-24T11:47:31;15.75;68.88
75164;HTU21D;63746;45.402;37.922;2023-04-24T11:49:59;15.72;68.78
75164;HTU21D;63746;45.402;37.922;2023-04-24T11:52:29;15.69;68.79
75164;HTU21D;63746;45.402;37.922;2023-04-24T11:54:55;15.65;68.74
75164;HTU21D;63746;45.402;37.922;2023-04-24T11:57:24;15.61;68.83
75164;HTU21D;63746;45.402;37.922;2023-04-24T11:59:52;15.59;68.86
75164;HTU21D;63746;45.402;37.922;2023-04-24T12:02:25;15.56;68.94
75164;HTU21D;63746;45.402;37.922;2023-04-24T12:04:54;15.54;68.91
75164;HTU21D;63746;45.402;37.922;2023-04-24T12:07:21;15.53;68.97
75164;HTU21D;63746;45.402;37.922;2023-04-24T12:09:57;15.54;69.01
75164;HTU21D;63746;45.402;37.922;2023-04-24T12:12:26;15.54;69.03
75164;HTU21D;63746;45.402;37.922;2023-04-24T12:14:55;15.52;68.93
75164;HTU21D;63746;45.402;37.922;2023-04-24T12:17:32;15.46;69.09
75164;HTU21D;63746;45.402;37.922;2023-04-24T12:20:04;15.44;68.96
75164;HTU21D;63746;45.402;37.922;2023-04-24T12:22:44;15.40;69.17
75164;HTU21D;63746;45.402;37.922;2023-04-24T12:25:17;15.39;69.01
75164;HTU21D;63746;45.402;37.922;2023-04-24T12:27:44;15.37;69.02
75164;HTU21D;63746;45.402;37.922;2023-04-24T12:30:13;15.34;69.09
75164;HTU21D;63746;45.402;37.922;2023-04-24T12:32:49;15.36;69.31
75164;HTU21D;63746;45.402;37.922;2023-04-24T12:35:20;15.34;69.16
75164;HTU21D;63746;45.402;37.922;2023-04-24T12:37:47;15.33;69.11
75164;HTU21D;63746;45.402;37.922;2023-04-24T12:40:14;15.33;69.09
75164;HTU21D;63746;45.402;37.922;2023-04-24T12:42:48;15.30;69.15
75164;HTU21D;63746;45.402;37.922;2023-04-24T12:45:16;15.28;69.13
75164;HTU21D;63746;45.402;37.922;2023-04-24T12:47:43;15.30;69.19
75164;HTU21D;63746;45.402;37.922;2023-04-24T12:50:11;15.29;69.16
75164;HTU21D;63746;45.402;37.922;2023-04-24T12:52:38;15.28;69.16
75164;HTU21D;63746;45.402;37.922;2023-04-24T12:55:05;15.29;69.34
75164;HTU21D;63746;45.402;37.922;2023-04-24T12:57:34;15.32;69.29
75164;HTU21D;63746;45.402;37.922;2023-04-24T13:00:01;15.34;69.25
75164;HTU21D;63746;45.402;37.922;2023-04-24T13:02:29;15.36;69.21
75164;HTU21D;63746;45.402;37.922;2023-04-24T13:04:59;15.34;69.20
75164;HTU21D;63746;45.402;37.922;2023-04-24T13:07:26;15.37;69.16
75164;HTU21D;63746;45.402;37.922;2023-04-24T13:09:55;15.36;69.20
75164;HTU21D;63746;45.402;37.922;2023-04-24T13:12:21;15.38;70.12
75164;HTU21D;63746;45.402;37.922;2023-04-24T13:14:49;15.37;69.26
75164;HTU21D;63746;45.402;37.922;2023-04-24T13:17:16;15.37;69.25
75164;HTU21D;63746;45.402;37.922;2023-04-24T13:19:43;15.37;69.24
75164;HTU21D;63746;45.402;37.922;2023-04-24T13:22:11;15.37;69.24
75164;HTU21D;63746;45.402;37.922;2023-04-24T13:24:37;15.37;69.23
75164;HTU21D;63746;45.402;37.922;2023-04-24T13:27:05;15.38;69.21
75164;HTU21D;63746;45.402;37.922;2023-04-24T13:29:31;15.39;69.20
75164;HTU21D;63746;45.402;37.922;2023-04-24T13:31:57;15.40;69.20
75164;HTU21D;63746;45.402;37.922;2023-04-24T13:34:23;15.40;69.19
75164;HTU21D;63746;45.402;37.922;2023-04-24T13:36:52;15.39;69.16
75164;HTU21D;63746;45.402;37.922;2023-04-24T13:39:18;15.40;69.15
75164;HTU21D;63746;45.402;37.922;2023-04-24T13:41:44;15.39;69.18
75164;HTU21D;63746;45.402;37.922;2023-04-24T13:44:12;15.39;69.20
75164;HTU21D;63746;45.402;37.922;2023-04-24T13:46:38;15.38;69.25
75164;HTU21D;63746;45.402;37.922;2023-04-24T13:49:04;15.40;69.36
75164;HTU21D;63746;45.402;37.922;2023-04-24T13:51:30;15.42;69.42
75164;HTU21D;63746;45.402;37.922;2023-04-24T13:53:56;15.45;69.36
75164;HTU21D;63746;45.402;37.922;2023-04-24T13:56:22;15.47;69.30
75164;HTU21D;63746;45.402;37.922;2023-04-24T13:58:48;15.47;69.26
75164;HTU21D;63746;45.402;37.922;2023-04-24T14:01:14;15.48;69.24
75164;HTU21D;63746;45.402;37.922;2023-04-24T14:03:41;15.47;69.21
75164;HTU21D;63746;45.402;37.922;2023-04-24T14:06:09;15.47;69.20
75164;HTU21D;63746;45.402;37.922;2023-04-24T14:08:34;15.46;69.22
75164;HTU21D;63746;45.402;37.922;2023-04-24T14:11:00;15.48;69.23
75164;HTU21D;63746;45.402;37.922;2023-04-24T14:13:27;15.49;69.24
75164;HTU21D;63746;45.402;37.922;2023-04-24T14:15:53;15.49;69.25
75164;HTU21D;63746;45.402;37.922;2023-04-24T14:18:19;15.52;69.25
75164;HTU21D;63746;45.402;37.922;2023-04-24T14:20:45;15.52;69.24
75164;HTU21D;63746;45.402;37.922;2023-04-24T14:23:11;15.53;69.24
75164;HTU21D;63746;45.402;37.922;2023-04-24T14:25:37;15.52;69.23
75164;HTU21D;63746;45.402;37.922;2023-04-24T14:28:03;15.54;69.23
75164;HTU21D;63746;45.402;37.922;2023-04-24T14:30:29;15.54;69.23
75164;HTU21D;63746;45.402;37.922;2023-04-24T14:32:55;15.54;69.23
75164;HTU21D;63746;45.402;37.922;2023-04-24T14:35:21;15.55;69.23
75164;HTU21D;63746;45.402;37.922;2023-04-24T14:37:47;15.55;69.23
75164;HTU21D;63746;45.402;37.922;2023-04-24T14:40:14;15.57;69.23
75164;HTU21D;63746;45.402;37.922;2023-04-24T14:42:40;15.57;69.25
75164;HTU21D;63746;45.402;37.922;2023-04-24T14:45:07;15.57;69.22
75164;HTU21D;63746;45.402;37.922;2023-04-24T14:47:33;15.57;69.19
75164;HTU21D;63746;45.402;37.922;2023-04-24T14:49:59;15.58;69.22
75164;HTU21D;63746;45.402;37.922;2023-04-24T14:52:25;15.58;69.20
75164;HTU21D;63746;45.402;37.922;2023-04-24T14:54:51;15.57;69.19
75164;HTU21D;63746;45.402;37.922;2023-04-24T14:57:17;15.58;69.20
75164;HTU21D;63746;45.402;37.922;2023-04-24T14:59:43;15.57;69.22
75164;HTU21D;63746;45.402;37.922;2023-04-24T15:02:09;15.59;69.25
75164;HTU21D;63746;45.402;37.922;2023-04-24T15:04:36;15.59;69.27
75164;HTU21D;63746;45.402;37.922;2023-04-24T15:07:02;15.61;69.29
75164;HTU21D;63746;45.402;37.922;2023-04-24T15:09:27;15.61;69.29
75164;HTU21D;63746;45.402;37.922;2023-04-24T15:11:53;15.61;69.23
75164;HTU21D;63746;45.402;37.922;2023-04-24T15:14:20;15.62;69.25
75164;HTU21D;63746;45.402;37.922;2023-04-24T15:16:46;15.62;69.28
75164;HTU21D;63746;45.402;37.922;2023-04-24T15:19:12;15.63;69.27
75164;HTU21D;63746;45.402;37.922;2023-04-24T15:21:37;15.63;69.28